South Hadley Falls, Massachusetts
Current Conditions -  °F | °C
As of 9:58 PM on Wednesday 22 Oct 2014 (Local Time) from KCEF Reporting Station
Overcast Overcast  
Wind Chill: 42°   Ceiling: 1500
Heat Index: 49°   Visibility: 10mi
Dew Point: 45°   Wind: 21mph
Humidity: 88%   Direction: 40°NE
Pressure: 29.84"   Gusts: 25mph
Location:  42.2564°N, 72.5775°W
Report Text: KCEF 230158Z AUTO 04018G22KT 10SM OVC015 09/07 A2984 RMK AO2 PK WND 03027/14 RAE0113 SLP111 P0001 T00930074
Loading
Personal Weather Stations






























Interactive Weather Map
Tropical Storm Tracking
New forecast layout! Learn more

10-Day Weather Forecast

Advertisements
Track Severe Weather on mobile